sensor_id;sensor_type;location;lat;lon;timestamp;P1;durP1;ratioP1;P2;durP2;ratioP2
80539;SDS011;69869;48.036;15.780;2024-03-22T00:01:53;1.40;;;1.30;;
80539;SDS011;69869;48.036;15.780;2024-03-22T00:04:19;2.10;;;1.70;;
80539;SDS011;69869;48.036;15.780;2024-03-22T00:06:46;1.70;;;1.60;;
80539;SDS011;69869;48.036;15.780;2024-03-22T00:09:12;1.70;;;1.60;;
80539;SDS011;69869;48.036;15.780;2024-03-22T00:11:39;1.58;;;1.48;;
80539;SDS011;69869;48.036;15.780;2024-03-22T00:14:06;1.52;;;1.42;;
80539;SDS011;69869;48.036;15.780;2024-03-22T00:16:32;1.77;;;1.67;;
80539;SDS011;69869;48.036;15.780;2024-03-22T00:18:58;1.65;;;1.55;;
80539;SDS011;69869;48.036;15.780;2024-03-22T00:21:23;1.80;;;1.70;;
80539;SDS011;69869;48.036;15.780;2024-03-22T00:23:49;1.60;;;1.50;;
80539;SDS011;69869;48.036;15.780;2024-03-22T00:26:15;1.70;;;1.60;;
80539;SDS011;69869;48.036;15.780;2024-03-22T00:28:41;1.90;;;1.50;;
80539;SDS011;69869;48.036;15.780;2024-03-22T00:31:07;1.70;;;1.60;;
80539;SDS011;69869;48.036;15.780;2024-03-22T00:33:33;1.60;;;1.50;;
80539;SDS011;69869;48.036;15.780;2024-03-22T00:35:59;2.00;;;1.85;;
80539;SDS011;69869;48.036;15.780;2024-03-22T00:38:24;1.80;;;1.70;;
80539;SDS011;69869;48.036;15.780;2024-03-22T00:40:50;1.67;;;1.58;;
80539;SDS011;69869;48.036;15.780;2024-03-22T00:43:16;2.67;;;1.67;;
80539;SDS011;69869;48.036;15.780;2024-03-22T00:45:41;1.75;;;1.65;;
80539;SDS011;69869;48.036;15.780;2024-03-22T00:48:07;1.60;;;1.50;;
80539;SDS011;69869;48.036;15.780;2024-03-22T00:50:33;1.60;;;1.50;;
80539;SDS011;69869;48.036;15.780;2024-03-22T00:52:59;1.80;;;1.70;;
80539;SDS011;69869;48.036;15.780;2024-03-22T00:55:24;1.80;;;1.70;;
80539;SDS011;69869;48.036;15.780;2024-03-22T00:57:51;1.70;;;1.60;;
80539;SDS011;69869;48.036;15.780;2024-03-22T01:00:16;1.80;;;1.70;;
80539;SDS011;69869;48.036;15.780;2024-03-22T01:05:10;1.55;;;1.45;;
80539;SDS011;69869;48.036;15.780;2024-03-22T01:07:36;1.80;;;1.70;;
80539;SDS011;69869;48.036;15.780;2024-03-22T01:10:05;1.73;;;1.63;;
80539;SDS011;69869;48.036;15.780;2024-03-22T01:12:31;1.98;;;1.80;;
80539;SDS011;69869;48.036;15.780;2024-03-22T01:14:57;1.80;;;1.70;;
80539;SDS011;69869;48.036;15.780;2024-03-22T01:17:23;2.00;;;1.90;;
80539;SDS011;69869;48.036;15.780;2024-03-22T01:19:49;1.80;;;1.70;;
80539;SDS011;69869;48.036;15.780;2024-03-22T01:22:15;1.83;;;1.70;;
80539;SDS011;69869;48.036;15.780;2024-03-22T01:24:42;1.80;;;1.70;;
80539;SDS011;69869;48.036;15.780;2024-03-22T01:27:08;1.65;;;1.55;;
80539;SDS011;69869;48.036;15.780;2024-03-22T01:29:33;2.00;;;1.80;;
80539;SDS011;69869;48.036;15.780;2024-03-22T01:31:59;1.95;;;1.83;;
80539;SDS011;69869;48.036;15.780;2024-03-22T01:34:25;1.90;;;1.80;;
80539;SDS011;69869;48.036;15.780;2024-03-22T01:36:51;2.78;;;2.03;;
80539;SDS011;69869;48.036;15.780;2024-03-22T01:39:18;1.90;;;1.80;;
80539;SDS011;69869;48.036;15.780;2024-03-22T01:41:46;2.00;;;1.88;;
80539;SDS011;69869;48.036;15.780;2024-03-22T01:44:18;2.38;;;2.20;;
80539;SDS011;69869;48.036;15.780;2024-03-22T01:46:44;1.70;;;1.60;;
80539;SDS011;69869;48.036;15.780;2024-03-22T01:49:13;1.90;;;1.80;;
80539;SDS011;69869;48.036;15.780;2024-03-22T01:51:41;2.75;;;1.90;;
80539;SDS011;69869;48.036;15.780;2024-03-22T01:54:08;2.05;;;1.85;;
80539;SDS011;69869;48.036;15.780;2024-03-22T01:56:38;2.20;;;2.00;;
80539;SDS011;69869;48.036;15.780;2024-03-22T01:59:05;2.20;;;2.00;;
80539;SDS011;69869;48.036;15.780;2024-03-22T02:01:31;2.20;;;2.00;;
80539;SDS011;69869;48.036;15.780;2024-03-22T02:03:57;2.22;;;2.05;;
80539;SDS011;69869;48.036;15.780;2024-03-22T02:06:23;2.28;;;2.08;;
80539;SDS011;69869;48.036;15.780;2024-03-22T02:08:49;2.75;;;2.50;;
80539;SDS011;69869;48.036;15.780;2024-03-22T02:11:14;2.10;;;2.00;;
80539;SDS011;69869;48.036;15.780;2024-03-22T02:13:40;2.45;;;2.22;;
80539;SDS011;69869;48.036;15.780;2024-03-22T02:16:08;2.30;;;2.10;;
80539;SDS011;69869;48.036;15.780;2024-03-22T02:18:33;2.53;;;2.33;;
80539;SDS011;69869;48.036;15.780;2024-03-22T02:20:59;2.22;;;2.10;;
80539;SDS011;69869;48.036;15.780;2024-03-22T02:23:34;2.97;;;2.38;;
80539;SDS011;69869;48.036;15.780;2024-03-22T02:26:02;2.22;;;2.03;;
80539;SDS011;69869;48.036;15.780;2024-03-22T02:28:28;2.30;;;2.10;;
80539;SDS011;69869;48.036;15.780;2024-03-22T02:30:55;3.10;;;2.20;;
80539;SDS011;69869;48.036;15.780;2024-03-22T02:33:21;2.00;;;1.90;;
80539;SDS011;69869;48.036;15.780;2024-03-22T02:35:47;2.15;;;2.05;;
80539;SDS011;69869;48.036;15.780;2024-03-22T02:38:13;2.00;;;1.90;;
80539;SDS011;69869;48.036;15.780;2024-03-22T02:40:38;2.30;;;2.10;;
80539;SDS011;69869;48.036;15.780;2024-03-22T02:43:04;2.28;;;2.08;;
80539;SDS011;69869;48.036;15.780;2024-03-22T02:45:30;2.20;;;2.00;;
80539;SDS011;69869;48.036;15.780;2024-03-22T02:47:56;2.25;;;2.05;;
80539;SDS011;69869;48.036;15.780;2024-03-22T02:50:22;2.40;;;2.20;;
80539;SDS011;69869;48.036;15.780;2024-03-22T02:52:50;2.20;;;2.00;;
80539;SDS011;69869;48.036;15.780;2024-03-22T02:55:16;2.58;;;2.30;;
80539;SDS011;69869;48.036;15.780;2024-03-22T02:57:42;2.47;;;2.28;;
80539;SDS011;69869;48.036;15.780;2024-03-22T03:00:07;2.10;;;2.00;;
80539;SDS011;69869;48.036;15.780;2024-03-22T03:02:33;2.30;;;2.10;;
80539;SDS011;69869;48.036;15.780;2024-03-22T03:04:59;2.55;;;2.35;;
80539;SDS011;69869;48.036;15.780;2024-03-22T03:07:25;2.40;;;2.20;;
80539;SDS011;69869;48.036;15.780;2024-03-22T03:09:51;2.30;;;2.10;;
80539;SDS011;69869;48.036;15.780;2024-03-22T03:12:16;2.42;;;2.22;;
80539;SDS011;69869;48.036;15.780;2024-03-22T03:14:42;2.70;;;2.50;;
80539;SDS011;69869;48.036;15.780;2024-03-22T03:17:08;2.33;;;2.13;;
80539;SDS011;69869;48.036;15.780;2024-03-22T03:19:33;2.30;;;2.10;;
80539;SDS011;69869;48.036;15.780;2024-03-22T03:21:59;2.50;;;2.30;;
80539;SDS011;69869;48.036;15.780;2024-03-22T03:24:25;2.25;;;2.13;;
80539;SDS011;69869;48.036;15.780;2024-03-22T03:26:51;2.33;;;2.13;;
80539;SDS011;69869;48.036;15.780;2024-03-22T03:29:16;2.50;;;2.30;;
80539;SDS011;69869;48.036;15.780;2024-03-22T03:31:42;2.20;;;2.00;;
80539;SDS011;69869;48.036;15.780;2024-03-22T03:34:07;2.38;;;2.17;;
80539;SDS011;69869;48.036;15.780;2024-03-22T03:36:33;2.03;;;1.92;;
80539;SDS011;69869;48.036;15.780;2024-03-22T03:38:59;2.35;;;2.15;;
80539;SDS011;69869;48.036;15.780;2024-03-22T03:41:24;2.85;;;2.10;;
80539;SDS011;69869;48.036;15.780;2024-03-22T03:43:50;2.33;;;2.15;;
80539;SDS011;69869;48.036;15.780;2024-03-22T03:46:15;2.08;;;1.92;;
80539;SDS011;69869;48.036;15.780;2024-03-22T03:48:41;2.47;;;2.28;;
80539;SDS011;69869;48.036;15.780;2024-03-22T03:51:07;2.40;;;2.20;;
80539;SDS011;69869;48.036;15.780;2024-03-22T03:53:32;2.35;;;2.17;;
80539;SDS011;69869;48.036;15.780;2024-03-22T03:55:58;2.47;;;2.28;;
80539;SDS011;69869;48.036;15.780;2024-03-22T03:58:24;2.50;;;2.30;;
80539;SDS011;69869;48.036;15.780;2024-03-22T04:00:50;2.40;;;2.20;;
80539;SDS011;69869;48.036;15.780;2024-03-22T04:03:15;2.50;;;2.30;;
80539;SDS011;69869;48.036;15.780;2024-03-22T04:05:41;2.70;;;2.50;;
80539;SDS011;69869;48.036;15.780;2024-03-22T04:08:06;2.10;;;2.00;;
80539;SDS011;69869;48.036;15.780;2024-03-22T04:10:32;2.70;;;2.40;;
80539;SDS011;69869;48.036;15.780;2024-03-22T04:12:58;2.40;;;2.20;;
80539;SDS011;69869;48.036;15.780;2024-03-22T04:15:23;2.95;;;2.35;;
80539;SDS011;69869;48.036;15.780;2024-03-22T04:17:49;2.45;;;2.25;;
80539;SDS011;69869;48.036;15.780;2024-03-22T04:20:14;3.05;;;2.75;;
80539;SDS011;69869;48.036;15.780;2024-03-22T04:22:40;2.88;;;2.30;;
80539;SDS011;69869;48.036;15.780;2024-03-22T04:25:06;2.83;;;2.63;;
80539;SDS011;69869;48.036;15.780;2024-03-22T04:27:35;3.15;;;2.85;;
80539;SDS011;69869;48.036;15.780;2024-03-22T04:30:01;3.03;;;2.72;;
80539;SDS011;69869;48.036;15.780;2024-03-22T04:32:27;3.05;;;2.80;;
80539;SDS011;69869;48.036;15.780;2024-03-22T04:34:53;2.67;;;2.47;;
80539;SDS011;69869;48.036;15.780;2024-03-22T04:37:20;2.97;;;2.70;;
80539;SDS011;69869;48.036;15.780;2024-03-22T04:39:46;2.70;;;2.50;;
80539;SDS011;69869;48.036;15.780;2024-03-22T04:42:11;3.78;;;2.83;;
80539;SDS011;69869;48.036;15.780;2024-03-22T04:44:37;3.08;;;2.83;;
80539;SDS011;69869;48.036;15.780;2024-03-22T04:47:03;3.15;;;2.85;;
80539;SDS011;69869;48.036;15.780;2024-03-22T04:49:28;3.15;;;2.90;;
80539;SDS011;69869;48.036;15.780;2024-03-22T04:51:54;3.13;;;2.83;;
80539;SDS011;69869;48.036;15.780;2024-03-22T04:54:20;2.75;;;2.55;;
80539;SDS011;69869;48.036;15.780;2024-03-22T04:56:46;3.50;;;2.90;;
80539;SDS011;69869;48.036;15.780;2024-03-22T04:59:11;3.58;;;3.00;;
80539;SDS011;69869;48.036;15.780;2024-03-22T05:01:37;3.33;;;3.00;;
80539;SDS011;69869;48.036;15.780;2024-03-22T05:04:02;2.80;;;2.60;;
80539;SDS011;69869;48.036;15.780;2024-03-22T05:06:28;3.03;;;2.60;;
80539;SDS011;69869;48.036;15.780;2024-03-22T05:08:54;3.78;;;3.05;;
80539;SDS011;69869;48.036;15.780;2024-03-22T05:11:19;3.25;;;2.95;;
80539;SDS011;69869;48.036;15.780;2024-03-22T05:13:45;3.00;;;2.80;;
80539;SDS011;69869;48.036;15.780;2024-03-22T05:16:11;3.20;;;2.90;;
80539;SDS011;69869;48.036;15.780;2024-03-22T05:18:37;3.08;;;2.75;;
80539;SDS011;69869;48.036;15.780;2024-03-22T05:21:03;3.30;;;3.00;;
80539;SDS011;69869;48.036;15.780;2024-03-22T05:23:29;3.17;;;2.92;;
80539;SDS011;69869;48.036;15.780;2024-03-22T05:25:54;3.15;;;2.85;;
80539;SDS011;69869;48.036;15.780;2024-03-22T05:28:20;3.10;;;2.80;;
80539;SDS011;69869;48.036;15.780;2024-03-22T05:30:46;3.10;;;2.80;;
80539;SDS011;69869;48.036;15.780;2024-03-22T05:33:12;3.58;;;3.15;;
80539;SDS011;69869;48.036;15.780;2024-03-22T05:35:38;3.45;;;2.90;;
80539;SDS011;69869;48.036;15.780;2024-03-22T05:38:03;2.83;;;2.63;;
80539;SDS011;69869;48.036;15.780;2024-03-22T05:40:29;3.20;;;2.90;;
80539;SDS011;69869;48.036;15.780;2024-03-22T05:42:55;3.30;;;2.95;;
80539;SDS011;69869;48.036;15.780;2024-03-22T05:45:21;3.42;;;3.13;;
80539;SDS011;69869;48.036;15.780;2024-03-22T05:47:47;3.28;;;2.95;;
80539;SDS011;69869;48.036;15.780;2024-03-22T05:50:12;3.17;;;2.88;;
80539;SDS011;69869;48.036;15.780;2024-03-22T05:52:39;2.90;;;2.70;;
80539;SDS011;69869;48.036;15.780;2024-03-22T05:55:05;3.10;;;2.80;;
80539;SDS011;69869;48.036;15.780;2024-03-22T05:57:31;3.95;;;3.10;;
80539;SDS011;69869;48.036;15.780;2024-03-22T05:59:56;3.45;;;3.15;;
80539;SDS011;69869;48.036;15.780;2024-03-22T06:02:22;3.15;;;2.80;;
80539;SDS011;69869;48.036;15.780;2024-03-22T06:04:48;3.42;;;3.13;;
80539;SDS011;69869;48.036;15.780;2024-03-22T06:07:14;3.03;;;2.72;;
80539;SDS011;69869;48.036;15.780;2024-03-22T06:09:41;4.15;;;3.38;;
80539;SDS011;69869;48.036;15.780;2024-03-22T06:12:14;3.47;;;3.17;;
80539;SDS011;69869;48.036;15.780;2024-03-22T06:14:43;3.42;;;3.10;;
80539;SDS011;69869;48.036;15.780;2024-03-22T06:17:09;3.25;;;2.95;;
80539;SDS011;69869;48.036;15.780;2024-03-22T06:19:35;3.08;;;2.88;;
80539;SDS011;69869;48.036;15.780;2024-03-22T06:22:01;3.78;;;2.80;;
80539;SDS011;69869;48.036;15.780;2024-03-22T06:24:27;3.30;;;3.00;;
80539;SDS011;69869;48.036;15.780;2024-03-22T06:26:53;3.30;;;3.00;;
80539;SDS011;69869;48.036;15.780;2024-03-22T06:29:19;3.20;;;2.90;;
80539;SDS011;69869;48.036;15.780;2024-03-22T06:31:45;3.33;;;3.00;;
80539;SDS011;69869;48.036;15.780;2024-03-22T06:34:11;3.30;;;3.00;;
80539;SDS011;69869;48.036;15.780;2024-03-22T06:36:37;3.08;;;2.78;;
80539;SDS011;69869;48.036;15.780;2024-03-22T06:39:02;3.63;;;3.28;;
80539;SDS011;69869;48.036;15.780;2024-03-22T06:41:31;3.15;;;2.85;;
80539;SDS011;69869;48.036;15.780;2024-03-22T06:43:57;3.50;;;3.08;;
80539;SDS011;69869;48.036;15.780;2024-03-22T06:46:23;3.63;;;2.80;;
80539;SDS011;69869;48.036;15.780;2024-03-22T06:48:49;3.53;;;3.22;;
80539;SDS011;69869;48.036;15.780;2024-03-22T06:51:15;3.30;;;3.00;;
80539;SDS011;69869;48.036;15.780;2024-03-22T06:53:41;3.42;;;3.13;;
80539;SDS011;69869;48.036;15.780;2024-03-22T06:56:06;3.08;;;2.75;;
80539;SDS011;69869;48.036;15.780;2024-03-22T06:58:35;3.40;;;3.08;;
80539;SDS011;69869;48.036;15.780;2024-03-22T07:01:01;3.50;;;3.20;;
80539;SDS011;69869;48.036;15.780;2024-03-22T07:03:27;3.40;;;3.10;;
80539;SDS011;69869;48.036;15.780;2024-03-22T07:05:52;5.07;;;3.28;;
80539;SDS011;69869;48.036;15.780;2024-03-22T07:08:18;3.40;;;3.10;;
80539;SDS011;69869;48.036;15.780;2024-03-22T07:10:44;3.30;;;3.00;;
80539;SDS011;69869;48.036;15.780;2024-03-22T07:13:10;3.72;;;3.28;;
80539;SDS011;69869;48.036;15.780;2024-03-22T07:15:36;3.50;;;2.92;;
80539;SDS011;69869;48.036;15.780;2024-03-22T07:18:02;3.28;;;2.97;;
80539;SDS011;69869;48.036;15.780;2024-03-22T07:20:28;3.72;;;3.42;;
80539;SDS011;69869;48.036;15.780;2024-03-22T07:22:55;3.58;;;3.20;;
80539;SDS011;69869;48.036;15.780;2024-03-22T07:25:21;3.80;;;3.20;;
80539;SDS011;69869;48.036;15.780;2024-03-22T07:27:46;3.50;;;3.20;;
80539;SDS011;69869;48.036;15.780;2024-03-22T07:30:14;4.07;;;3.30;;
80539;SDS011;69869;48.036;15.780;2024-03-22T07:32:39;3.30;;;3.00;;
80539;SDS011;69869;48.036;15.780;2024-03-22T07:35:05;3.50;;;3.20;;
80539;SDS011;69869;48.036;15.780;2024-03-22T07:37:32;3.70;;;3.40;;
80539;SDS011;69869;48.036;15.780;2024-03-22T07:39:59;3.97;;;3.17;;
80539;SDS011;69869;48.036;15.780;2024-03-22T07:42:25;3.97;;;3.55;;
80539;SDS011;69869;48.036;15.780;2024-03-22T07:44:50;3.65;;;3.35;;
80539;SDS011;69869;48.036;15.780;2024-03-22T07:47:16;3.58;;;3.28;;
80539;SDS011;69869;48.036;15.780;2024-03-22T07:49:41;3.30;;;3.00;;
80539;SDS011;69869;48.036;15.780;2024-03-22T07:52:07;3.45;;;3.10;;
80539;SDS011;69869;48.036;15.780;2024-03-22T07:54:33;3.67;;;3.20;;
80539;SDS011;69869;48.036;15.780;2024-03-22T07:56:58;3.30;;;3.00;;
80539;SDS011;69869;48.036;15.780;2024-03-22T07:59:24;4.22;;;3.13;;
80539;SDS011;69869;48.036;15.780;2024-03-22T08:01:50;3.67;;;3.03;;
80539;SDS011;69869;48.036;15.780;2024-03-22T08:04:16;4.03;;;3.55;;
80539;SDS011;69869;48.036;15.780;2024-03-22T08:06:41;3.80;;;2.90;;
80539;SDS011;69869;48.036;15.780;2024-03-22T08:09:07;3.65;;;3.33;;
80539;SDS011;69869;48.036;15.780;2024-03-22T08:11:33;3.10;;;2.80;;
80539;SDS011;69869;48.036;15.780;2024-03-22T08:13:58;3.83;;;3.40;;
80539;SDS011;69869;48.036;15.780;2024-03-22T08:16:28;4.20;;;3.40;;
80539;SDS011;69869;48.036;15.780;2024-03-22T08:18:56;3.88;;;3.50;;
80539;SDS011;69869;48.036;15.780;2024-03-22T08:21:22;4.10;;;3.70;;
80539;SDS011;69869;48.036;15.780;2024-03-22T08:23:51;4.28;;;3.40;;
80539;SDS011;69869;48.036;15.780;2024-03-22T08:26:17;3.88;;;3.47;;
80539;SDS011;69869;48.036;15.780;2024-03-22T08:28:43;3.80;;;3.30;;
80539;SDS011;69869;48.036;15.780;2024-03-22T08:31:10;3.47;;;3.17;;
80539;SDS011;69869;48.036;15.780;2024-03-22T08:33:35;3.97;;;3.58;;
80539;SDS011;69869;48.036;15.780;2024-03-22T08:36:01;3.63;;;3.28;;
80539;SDS011;69869;48.036;15.780;2024-03-22T08:38:27;4.20;;;3.60;;
80539;SDS011;69869;48.036;15.780;2024-03-22T08:40:52;4.70;;;3.60;;
80539;SDS011;69869;48.036;15.780;2024-03-22T08:43:18;3.63;;;3.33;;
80539;SDS011;69869;48.036;15.780;2024-03-22T08:45:44;4.20;;;3.63;;
80539;SDS011;69869;48.036;15.780;2024-03-22T08:48:09;3.75;;;3.35;;
80539;SDS011;69869;48.036;15.780;2024-03-22T08:50:35;5.00;;;3.67;;
80539;SDS011;69869;48.036;15.780;2024-03-22T08:53:00;3.83;;;3.25;;
80539;SDS011;69869;48.036;15.780;2024-03-22T08:55:29;3.70;;;3.10;;
80539;SDS011;69869;48.036;15.780;2024-03-22T08:57:55;5.38;;;3.80;;
80539;SDS011;69869;48.036;15.780;2024-03-22T09:00:21;4.20;;;3.38;;
80539;SDS011;69869;48.036;15.780;2024-03-22T09:02:46;4.18;;;3.78;;
80539;SDS011;69869;48.036;15.780;2024-03-22T09:05:12;4.00;;;3.60;;
80539;SDS011;69869;48.036;15.780;2024-03-22T09:07:38;4.25;;;3.85;;
80539;SDS011;69869;48.036;15.780;2024-03-22T09:10:04;3.97;;;3.45;;
80539;SDS011;69869;48.036;15.780;2024-03-22T09:12:31;3.83;;;3.40;;
80539;SDS011;69869;48.036;15.780;2024-03-22T09:14:57;4.18;;;3.78;;
80539;SDS011;69869;48.036;15.780;2024-03-22T09:17:22;4.22;;;3.42;;
80539;SDS011;69869;48.036;15.780;2024-03-22T09:19:48;4.20;;;3.53;;
80539;SDS011;69869;48.036;15.780;2024-03-22T09:22:14;4.35;;;3.63;;
80539;SDS011;69869;48.036;15.780;2024-03-22T09:24:40;3.75;;;3.45;;
80539;SDS011;69869;48.036;15.780;2024-03-22T09:27:06;3.78;;;3.38;;
80539;SDS011;69869;48.036;15.780;2024-03-22T09:29:35;4.40;;;3.50;;
80539;SDS011;69869;48.036;15.780;2024-03-22T09:32:01;4.07;;;3.63;;
80539;SDS011;69869;48.036;15.780;2024-03-22T09:34:27;3.63;;;3.30;;
80539;SDS011;69869;48.036;15.780;2024-03-22T09:36:54;3.75;;;3.30;;
80539;SDS011;69869;48.036;15.780;2024-03-22T09:39:21;4.03;;;3.45;;
80539;SDS011;69869;48.036;15.780;2024-03-22T09:41:47;4.18;;;3.22;;
80539;SDS011;69869;48.036;15.780;2024-03-22T09:44:14;4.78;;;3.45;;
80539;SDS011;69869;48.036;15.780;2024-03-22T09:46:43;4.15;;;3.53;;
80539;SDS011;69869;48.036;15.780;2024-03-22T09:49:12;3.38;;;3.08;;
80539;SDS011;69869;48.036;15.780;2024-03-22T09:51:39;4.00;;;3.50;;
80539;SDS011;69869;48.036;15.780;2024-03-22T09:54:06;3.67;;;3.38;;
80539;SDS011;69869;48.036;15.780;2024-03-22T09:56:33;3.22;;;2.92;;
80539;SDS011;69869;48.036;15.780;2024-03-22T09:59:00;3.90;;;3.05;;
80539;SDS011;69869;48.036;15.780;2024-03-22T10:01:26;3.10;;;2.80;;
80539;SDS011;69869;48.036;15.780;2024-03-22T10:03:52;3.90;;;3.05;;
80539;SDS011;69869;48.036;15.780;2024-03-22T10:06:21;3.20;;;2.90;;
80539;SDS011;69869;48.036;15.780;2024-03-22T10:08:46;3.67;;;3.30;;
80539;SDS011;69869;48.036;15.780;2024-03-22T10:11:12;3.40;;;3.10;;
80539;SDS011;69869;48.036;15.780;2024-03-22T10:13:38;3.30;;;3.00;;
80539;SDS011;69869;48.036;15.780;2024-03-22T10:16:04;2.97;;;2.78;;
80539;SDS011;69869;48.036;15.780;2024-03-22T10:18:32;3.15;;;2.85;;
80539;SDS011;69869;48.036;15.780;2024-03-22T10:20:59;3.22;;;2.92;;
80539;SDS011;69869;48.036;15.780;2024-03-22T10:23:29;2.83;;;2.63;;
80539;SDS011;69869;48.036;15.780;2024-03-22T10:25:56;3.10;;;2.80;;
80539;SDS011;69869;48.036;15.780;2024-03-22T10:28:23;3.30;;;2.95;;
80539;SDS011;69869;48.036;15.780;2024-03-22T10:30:50;3.20;;;2.90;;
80539;SDS011;69869;48.036;15.780;2024-03-22T10:33:18;2.83;;;2.60;;
80539;SDS011;69869;48.036;15.780;2024-03-22T10:35:45;3.10;;;2.80;;
80539;SDS011;69869;48.036;15.780;2024-03-22T10:38:14;3.03;;;2.78;;
80539;SDS011;69869;48.036;15.780;2024-03-22T10:40:44;3.00;;;2.70;;
80539;SDS011;69869;48.036;15.780;2024-03-22T10:43:13;2.75;;;2.50;;
80539;SDS011;69869;48.036;15.780;2024-03-22T10:45:40;3.22;;;2.83;;
80539;SDS011;69869;48.036;15.780;2024-03-22T10:48:10;2.60;;;2.40;;
80539;SDS011;69869;48.036;15.780;2024-03-22T10:50:39;2.97;;;2.70;;
80539;SDS011;69869;48.036;15.780;2024-03-22T10:53:11;2.50;;;2.30;;
80539;SDS011;69869;48.036;15.780;2024-03-22T10:55:45;3.55;;;2.65;;
80539;SDS011;69869;48.036;15.780;2024-03-22T10:58:16;2.60;;;2.40;;
80539;SDS011;69869;48.036;15.780;2024-03-22T11:00:43;2.60;;;2.40;;
80539;SDS011;69869;48.036;15.780;2024-03-22T11:03:09;2.88;;;2.45;;
80539;SDS011;69869;48.036;15.780;2024-03-22T11:05:44;2.72;;;2.53;;
80539;SDS011;69869;48.036;15.780;2024-03-22T11:08:10;2.60;;;2.40;;
80539;SDS011;69869;48.036;15.780;2024-03-22T11:10:36;3.22;;;2.50;;
80539;SDS011;69869;48.036;15.780;2024-03-22T11:13:05;3.08;;;2.55;;
80539;SDS011;69869;48.036;15.780;2024-03-22T11:15:32;2.55;;;2.35;;
80539;SDS011;69869;48.036;15.780;2024-03-22T11:17:59;2.50;;;2.30;;
80539;SDS011;69869;48.036;15.780;2024-03-22T11:20:25;2.42;;;2.22;;
80539;SDS011;69869;48.036;15.780;2024-03-22T11:22:55;2.42;;;2.22;;
80539;SDS011;69869;48.036;15.780;2024-03-22T11:25:21;2.55;;;2.35;;
80539;SDS011;69869;48.036;15.780;2024-03-22T11:27:47;2.50;;;2.30;;
80539;SDS011;69869;48.036;15.780;2024-03-22T11:30:12;2.63;;;2.42;;
80539;SDS011;69869;48.036;15.780;2024-03-22T11:32:41;2.50;;;2.30;;
80539;SDS011;69869;48.036;15.780;2024-03-22T11:35:10;2.53;;;2.30;;
80539;SDS011;69869;48.036;15.780;2024-03-22T11:37:36;2.33;;;2.13;;
80539;SDS011;69869;48.036;15.780;2024-03-22T11:40:08;2.38;;;2.28;;
80539;SDS011;69869;48.036;15.780;2024-03-22T11:42:35;2.50;;;2.30;;
80539;SDS011;69869;48.036;15.780;2024-03-22T11:45:02;2.47;;;2.28;;
80539;SDS011;69869;48.036;15.780;2024-03-22T11:47:29;2.30;;;2.10;;
80539;SDS011;69869;48.036;15.780;2024-03-22T11:49:55;2.47;;;2.28;;
80539;SDS011;69869;48.036;15.780;2024-03-22T11:52:24;2.47;;;2.28;;
80539;SDS011;69869;48.036;15.780;2024-03-22T11:54:51;2.90;;;2.13;;
80539;SDS011;69869;48.036;15.780;2024-03-22T11:57:17;2.92;;;2.20;;
80539;SDS011;69869;48.036;15.780;2024-03-22T11:59:46;2.40;;;2.20;;
80539;SDS011;69869;48.036;15.780;2024-03-22T12:02:11;2.40;;;2.28;;
80539;SDS011;69869;48.036;15.780;2024-03-22T12:04:56;2.45;;;2.25;;
80539;SDS011;69869;48.036;15.780;2024-03-22T12:07:21;2.38;;;2.17;;
80539;SDS011;69869;48.036;15.780;2024-03-22T12:09:48;2.50;;;2.30;;
80539;SDS011;69869;48.036;15.780;2024-03-22T12:12:14;2.70;;;2.47;;
80539;SDS011;69869;48.036;15.780;2024-03-22T12:14:40;2.72;;;2.53;;
80539;SDS011;69869;48.036;15.780;2024-03-22T12:17:06;2.30;;;2.20;;
80539;SDS011;69869;48.036;15.780;2024-03-22T12:19:32;2.20;;;2.00;;
80539;SDS011;69869;48.036;15.780;2024-03-22T12:21:58;2.42;;;2.22;;
80539;SDS011;69869;48.036;15.780;2024-03-22T12:24:25;2.28;;;2.10;;
80539;SDS011;69869;48.036;15.780;2024-03-22T12:26:52;2.13;;;2.03;;
80539;SDS011;69869;48.036;15.780;2024-03-22T12:29:18;2.40;;;2.20;;
80539;SDS011;69869;48.036;15.780;2024-03-22T12:31:44;2.17;;;2.08;;
80539;SDS011;69869;48.036;15.780;2024-03-22T12:34:10;2.08;;;1.98;;
80539;SDS011;69869;48.036;15.780;2024-03-22T12:36:37;2.38;;;2.22;;
80539;SDS011;69869;48.036;15.780;2024-03-22T12:39:02;2.28;;;2.17;;
80539;SDS011;69869;48.036;15.780;2024-03-22T12:41:29;2.72;;;2.25;;
80539;SDS011;69869;48.036;15.780;2024-03-22T12:43:55;2.25;;;2.10;;
80539;SDS011;69869;48.036;15.780;2024-03-22T12:46:21;3.30;;;2.20;;
80539;SDS011;69869;48.036;15.780;2024-03-22T12:48:46;2.28;;;2.15;;
80539;SDS011;69869;48.036;15.780;2024-03-22T12:51:12;2.20;;;2.10;;
80539;SDS011;69869;48.036;15.780;2024-03-22T12:53:38;2.50;;;2.30;;
80539;SDS011;69869;48.036;15.780;2024-03-22T12:56:04;2.10;;;2.00;;
80539;SDS011;69869;48.036;15.780;2024-03-22T12:58:33;2.10;;;2.00;;
80539;SDS011;69869;48.036;15.780;2024-03-22T13:00:59;2.38;;;2.17;;
80539;SDS011;69869;48.036;15.780;2024-03-22T13:03:26;2.20;;;2.10;;
80539;SDS011;69869;48.036;15.780;2024-03-22T13:05:52;2.08;;;1.85;;
80539;SDS011;69869;48.036;15.780;2024-03-22T13:08:18;2.58;;;2.17;;
80539;SDS011;69869;48.036;15.780;2024-03-22T13:10:44;2.63;;;2.10;;
80539;SDS011;69869;48.036;15.780;2024-03-22T13:13:10;2.22;;;2.03;;
80539;SDS011;69869;48.036;15.780;2024-03-22T13:15:36;3.33;;;2.42;;
80539;SDS011;69869;48.036;15.780;2024-03-22T13:18:05;2.22;;;2.03;;
80539;SDS011;69869;48.036;15.780;2024-03-22T13:20:32;2.50;;;2.30;;
80539;SDS011;69869;48.036;15.780;2024-03-22T13:22:59;2.63;;;2.42;;
80539;SDS011;69869;48.036;15.780;2024-03-22T13:25:26;2.13;;;2.03;;
80539;SDS011;69869;48.036;15.780;2024-03-22T13:27:51;2.42;;;2.22;;
80539;SDS011;69869;48.036;15.780;2024-03-22T13:30:17;2.13;;;2.03;;
80539;SDS011;69869;48.036;15.780;2024-03-22T13:32:43;2.40;;;2.20;;
80539;SDS011;69869;48.036;15.780;2024-03-22T13:35:08;3.22;;;2.20;;
80539;SDS011;69869;48.036;15.780;2024-03-22T13:37:35;2.75;;;2.17;;
80539;SDS011;69869;48.036;15.780;2024-03-22T13:40:01;2.45;;;2.25;;
80539;SDS011;69869;48.036;15.780;2024-03-22T13:42:27;2.30;;;2.10;;
80539;SDS011;69869;48.036;15.780;2024-03-22T13:44:52;2.60;;;2.38;;
80539;SDS011;69869;48.036;15.780;2024-03-22T13:47:18;2.00;;;1.83;;
80539;SDS011;69869;48.036;15.780;2024-03-22T13:49:44;2.40;;;2.20;;
80539;SDS011;69869;48.036;15.780;2024-03-22T13:52:10;2.13;;;2.00;;
80539;SDS011;69869;48.036;15.780;2024-03-22T13:54:36;2.38;;;2.17;;
80539;SDS011;69869;48.036;15.780;2024-03-22T13:57:02;2.30;;;2.20;;
80539;SDS011;69869;48.036;15.780;2024-03-22T13:59:28;2.42;;;2.22;;
80539;SDS011;69869;48.036;15.780;2024-03-22T14:01:54;2.60;;;2.40;;
80539;SDS011;69869;48.036;15.780;2024-03-22T14:04:21;2.70;;;2.35;;
80539;SDS011;69869;48.036;15.780;2024-03-22T14:06:47;2.30;;;2.10;;
80539;SDS011;69869;48.036;15.780;2024-03-22T14:09:13;2.33;;;2.13;;
80539;SDS011;69869;48.036;15.780;2024-03-22T14:11:38;2.45;;;2.25;;
80539;SDS011;69869;48.036;15.780;2024-03-22T14:14:04;2.50;;;2.30;;
80539;SDS011;69869;48.036;15.780;2024-03-22T14:16:30;2.40;;;2.20;;
80539;SDS011;69869;48.036;15.780;2024-03-22T14:18:56;2.40;;;2.20;;
80539;SDS011;69869;48.036;15.780;2024-03-22T14:21:21;2.10;;;2.00;;
80539;SDS011;69869;48.036;15.780;2024-03-22T14:23:50;2.67;;;2.47;;
80539;SDS011;69869;48.036;15.780;2024-03-22T14:26:17;3.45;;;2.50;;
80539;SDS011;69869;48.036;15.780;2024-03-22T14:28:43;2.33;;;2.08;;
80539;SDS011;69869;48.036;15.780;2024-03-22T14:31:09;2.60;;;2.40;;